KA4TEV Weather Reports


Display with metric or nautical units.
time (UTC)temp
F
wind
direction
speed
MPH
gust
MPH
rain 1hr
in
rain 24hr
in
rain mn
in
humidity
%
barometer
mb
20240622213423 80 161 4.0 7.0 0.00 1.58 1.58 93 1015.7
20240622212948 80 144 3.0 7.0 0.00 1.58 1.58 93 1015.5
20240622212435 79 161 3.0 7.0 0.00 1.58 1.58 94 1015.5
20240622211919 79 150 3.0 6.0 0.00 1.58 1.58 94 1015.5
20240622211425 79 163 3.0 6.0 0.00 1.58 1.58 94 1016.1
20240622210928 79 138 1.0 6.0 0.00 1.58 1.58 94 1016.1
20240622210417 78 140 4.0 9.0 0.00 1.58 1.58 94 1016.1
20240622205921 78 153 4.0 8.0 0.00 1.58 1.58 94 1016.4
20240622205445 78 119 3.0 8.0 0.00 1.58 1.58 94 1016.4
20240622204913 78 144 3.0 11.0 0.00 1.58 1.58 95 1016.4
20240622204421 78 109 4.0 11.0 0.00 1.58 1.58 95 1016.6
20240622203927 78 147 5.0 9.0 0.00 1.58 1.58 95 1016.6
20240622203432 78 107 2.0 8.0 0.00 1.58 1.58 95 1016.6
20240622202956 78 113 3.0 8.0 0.01 1.58 1.58 95 1016.6
20240622202420 77 110 3.0 8.0 0.01 1.58 1.58 95 1016.6
20240622201925 77 78 3.0 8.0 0.03 1.58 1.58 95 1016.6
20240622201431 77 44 4.0 7.0 0.05 1.58 1.58 95 1016.1
20240622200919 77 80 3.0 7.0 0.09 1.58 1.58 95 1016.1
20240622200446 76 98 4.0 7.0 0.12 1.58 1.58 94 1016.1
20240622195933 76 96 3.0 5.0 0.17 1.58 1.58 94 1016.2
20240622195417 76 101 1.0 5.0 0.27 1.58 1.58 94 1016.2
20240622194922 76 62 2.0 5.0 0.41 1.58 1.58 94 1016.2
20240622194429 76 32 2.0 5.0 0.63 1.58 1.58 94 1016.6
20240622193933 76 52 1.0 3.0 0.83 1.58 1.58 94 1016.6
20240622193418 76 334 2.0 4.0 1.15 1.57 1.57 94 1016.6
20240622192923 76 347 2.0 4.0 1.28 1.57 1.57 93 1017.1
20240622192428 76 40 1.0 4.0 1.47 1.57 1.57 93 1017.1
20240622191915 76 40 2.0 6.0 1.55 1.55 1.55 93 1017.1
20240622191427 76 40 2.0 8.0 1.52 1.52 1.52 93 1017.1
20240622190921 76 17 5.0 8.0 1.49 1.49 1.49 93 1017.1
20240622190414 76 48 4.0 11.0 1.46 1.46 1.46 92 1017.1
20240622185923 76 39 7.0 13.0 1.39 1.39 1.39 92 1017.1
20240622185432 76 44 9.0 14.0 1.31 1.31 1.31 91 1017.1
20240622184921 76 68 9.0 21.0 1.17 1.17 1.17 90 1017.1
20240622184428 77 81 9.0 21.0 0.95 0.95 0.95 88 1017.4
20240622183918 78 76 13.0 21.0 0.65 0.65 0.65 86 1017.4
20240622183424 80 65 7.0 13.0 0.42 0.42 0.42 85 1017.4
20240622182931 81 144 6.0 14.0 0.29 0.29 0.29 81 1016.4
20240622182417 84 135 8.0 14.0 0.10 0.10 0.10 77 1016.4
20240622181922 87 202 8.0 16.0 0.00 0.00 0.00 73 1016.4
20240622181433 91 136 9.0 16.0 0.00 0.00 0.00 66 1016.2
20240622180919 92 167 4.0 7.0 0.00 0.00 0.00 64 1016.2
20240622180448 93 250 2.0 5.0 0.00 0.00 0.00 62 1016.2
20240622175914 93 256 1.0 4.0 0.00 0.00 0.00 60 1016.2
20240622175424 93 220 2.0 4.0 0.00 0.00 0.00 61 1016.2
20240622174926 93 241 1.0 5.0 0.00 0.00 0.00 62 1016.2
20240622174414 93 209 2.0 7.0 0.00 0.00 0.00 60 1016.6
20240622173926 93 90 3.0 7.0 0.00 0.00 0.00 61 1016.6
20240622173436 93 91 5.0 8.0 0.00 0.00 0.00 61 1016.6
20240622172925 92 125 3.0 8.0 0.00 0.00 0.00 61 1016.7
20240622172431 92 121 3.0 8.0 0.00 0.00 0.00 62 1016.7
20240622171920 92 109 4.0 7.0 0.00 0.00 0.00 65 1016.7
20240622171430 92 83 3.0 8.0 0.00 0.00 0.00 66 1017.0
20240622170917 92 229 3.0 8.0 0.00 0.00 0.00 65 1017.0
20240622170429 92 74 2.0 8.0 0.00 0.00 0.00 66 1017.0
20240622165916 91 147 2.0 6.0 0.00 0.00 0.00 65 1017.1
20240622165426 92 225 2.0 6.0 0.00 0.00 0.00 66 1017.1
20240622164916 91 187 2.0 5.0 0.00 0.00 0.00 66 1017.1
20240622164444 91 126 3.0 7.0 0.00 0.00 0.00 66 1017.2
20240622163933 91 132 4.0 7.0 0.00 0.00 0.00 67 1017.2
20240622163441 91 84 3.0 7.0 0.00 0.00 0.00 67 1017.2
20240622162929 91 105 3.0 5.0 0.00 0.00 0.00 69 1017.6
20240622162443 90 99 1.0 6.0 0.00 0.00 0.00 68 1017.6
20240622161929 90 229 3.0 5.0 0.00 0.00 0.00 68 1017.6
20240622161420 89 171 2.0 5.0 0.00 0.00 0.00 71 1017.8
20240622160931 88 180 2.0 6.0 0.00 0.00 0.00 73 1017.8
20240622160421 87 172 3.0 6.0 0.00 0.00 0.00 74 1017.8
20240622155911 87 158 1.0 7.0 0.00 0.00 0.00 78 1018.0
20240622155425 87 164 3.0 7.0 0.00 0.00 0.00 76 1018.0
20240622154912 88 136 3.0 9.0 0.00 0.00 0.00 75 1018.0
20240622154426 89 155 4.0 9.0 0.00 0.00 0.00 72 1018.0
20240622153934 89 182 3.0 6.0 0.00 0.00 0.00 70 1018.0
20240622153423 90 130 2.0 4.0 0.00 0.00 0.00 69 1018.0
20240622152951 90 91 3.0 6.0 0.00 0.00 0.00 69 1017.9
20240622152422 90 139 4.0 8.0 0.00 0.00 0.00 68 1017.9
20240622151929 90 121 2.0 8.0 0.00 0.00 0.00 69 1017.9
20240622151425 90 132 3.0 9.0 0.00 0.00 0.00 70 1018.1
20240622150932 90 92 4.0 9.0 0.00 0.00 0.00 70 1018.1
20240622150418 90 171 5.0 10.0 0.00 0.00 0.00 71 1018.1
20240622145928 89 88 3.0 10.0 0.00 0.00 0.00 71 1018.1
20240622145435 89 85 4.0 8.0 0.00 0.00 0.00 73 1018.1
20240622144945 89 118 3.0 6.0 0.00 0.00 0.00 72 1018.1
20240622144414 88 150 3.0 5.0 0.00 0.00 0.00 74 1018.0
20240622143927 88 196 1.0 6.0 0.00 0.00 0.00 75 1018.0
20240622143421 88 105 3.0 6.0 0.00 0.00 0.00 76 1018.0
20240622142930 87 108 2.0 5.0 0.00 0.00 0.00 76 1018.1
20240622142417 87 112 3.0 7.0 0.00 0.00 0.00 76 1018.1
20240622141927 87 113 3.0 7.0 0.00 0.00 0.00 76 1018.1
20240622141435 87 138 3.0 6.0 0.00 0.00 0.00 76 1018.0
20240622140927 88 155 4.0 6.0 0.00 0.00 0.00 75 1018.0
20240622140418 88 138 4.0 6.0 0.00 0.00 0.00 76 1018.0
20240622135928 88 119 3.0 11.0 0.00 0.00 0.00 77 1017.9
20240622135415 87 101 3.0 11.0 0.00 0.00 0.00 76 1017.9
20240622134923 87 121 5.0 9.0 0.00 0.00 0.00 77 1017.9
20240622134431 87 155 2.0 7.0 0.00 0.00 0.00 76 1018.0
20240622133924 87 113 3.0 8.0 0.00 0.00 0.00 75 1018.0
20240622133412 88 157 3.0 5.0 0.00 0.00 0.00 76 1018.0
20240622132923 87 167 2.0 5.0 0.00 0.00 0.00 75 1018.0
20240622132452 87 103 2.0 6.0 0.00 0.00 0.00 75 1018.0
20240622131921 87 163 2.0 9.0 0.00 0.00 0.00 74 1018.0
20240622131432 87 121 4.0 9.0 0.00 0.00 0.00 74 1017.8
20240622130919 87 90 2.0 6.0 0.00 0.00 0.00 75 1017.8
20240622130447 86 88 2.0 6.0 0.00 0.00 0.00 75 1017.8
20240622125916 86 80 2.0 6.0 0.00 0.00 0.00 76 1018.1
20240622125423 86 121 3.0 5.0 0.00 0.00 0.00 77 1018.1
20240622124931 85 100 1.0 4.0 0.00 0.00 0.00 78 1018.1
20240622124425 85 148 2.0 8.0 0.00 0.00 0.00 78 1017.8
20240622123933 85 118 3.0 8.0 0.00 0.00 0.00 79 1017.8
20240622123421 84 84 5.0 7.0 0.00 0.00 0.00 80 1017.8
20240622122928 84 88 3.0 7.0 0.00 0.00 0.00 82 1017.6
20240622122416 84 103 3.0 7.0 0.00 0.00 0.00 83 1017.6
20240622121925 83 90 2.0 4.0 0.00 0.00 0.00 84 1017.6
20240622121437 83 103 2.0 4.0 0.00 0.00 0.00 84 1017.4
20240622120923 83 134 2.0 4.0 0.00 0.00 0.00 85 1017.4
20240622120432 82 105 2.0 5.0 0.00 0.00 0.00 86 1017.4
20240622115922 82 110 2.0 5.0 0.00 0.00 0.00 87 1017.2
20240622115414 82 89 4.0 6.0 0.00 0.00 0.00 88 1017.2
20240622114944 82 153 1.0 8.0 0.00 0.00 0.00 88 1017.2
20240622114418 81 90 2.0 8.0 0.00 0.00 0.00 89 1017.1
20240622113928 81 97 1.0 6.0 0.00 0.00 0.00 90 1017.1
20240622113415 81 98 2.0 6.0 0.00 0.00 0.00 90 1017.1
20240622112926 80 132 2.0 4.0 0.00 0.00 0.00 90 1017.1
20240622112432 80 97 2.0 5.0 0.00 0.00 0.00 90 1017.1
20240622111922 80 101 1.0 3.0 0.00 0.00 0.00 91 1017.1
20240622111430 80 90 1.0 3.0 0.00 0.00 0.00 91 1017.0
20240622110919 79 60 1.0 3.0 0.00 0.00 0.00 91 1017.0
20240622110426 79 92 1.0 4.0 0.00 0.00 0.00 90 1017.0
20240622105918 79 55 2.0 4.0 0.00 0.00 0.00 90 1016.7
20240622105425 79 84 2.0 4.0 0.00 0.00 0.00 90 1016.7
20240622104916 79 82 1.0 5.0 0.00 0.00 0.00 90 1016.7
20240622104426 79 82 1.0 6.0 0.00 0.00 0.00 90 1016.6
20240622103934 79 76 2.0 6.0 0.00 0.00 0.00 90 1016.6
20240622103424 79 94 1.0 5.0 0.00 0.00 0.00 90 1016.6
20240622102931 79 87 2.0 5.0 0.00 0.00 0.00 90 1016.6
20240622102421 79 92 1.0 5.0 0.00 0.00 0.00 89 1016.6
20240622101930 79 86 2.0 5.0 0.00 0.00 0.00 89 1016.6
20240622101423 79 67 3.0 5.0 0.00 0.00 0.00 89 1016.4
20240622100921 79 59 2.0 4.0 0.00 0.00 0.00 89 1016.4
20240622100428 79 81 2.0 5.0 0.00 0.00 0.00 90 1016.4
20240622095915 79 66 2.0 5.0 0.00 0.00 0.00 90 1016.5
20240622095426 79 65 2.0 4.0 0.00 0.00 0.00 90 1016.5
20240622094935 79 66 2.0 3.0 0.00 0.00 0.00 90 1016.5
20240622094443 79 46 1.0 3.0 0.00 0.00 0.00 90 1016.6
20240622093930 79 46 1.0 3.0 0.00 0.00 0.00 90 1016.6
20240622093418 79 46 1.0 3.0 0.00 0.00 0.00 90 1016.6
20240622092925 79 46 1.0 3.0 0.00 0.00 0.00 90 1016.2
20240622092415 79 46 1.0 2.0 0.00 0.00 0.00 89 1016.2
20240622091943 79 46 1.0 3.0 0.00 0.00 0.00 89 1016.2
20240622091430 79 46 1.0 3.0 0.00 0.00 0.00 89 1016.3
20240622090923 79 46 1.0 2.0 0.00 0.00 0.00 89 1016.3
20240622090430 79 46 1.0 2.0 0.00 0.00 0.00 89 1016.3
20240622085918 79 46 1.0 2.0 0.00 0.00 0.00 89 1016.4
20240622085426 79 46 1.0 2.0 0.00 0.00 0.00 89 1016.4
20240622084934 79 46 1.0 2.0 0.00 0.00 0.00 89 1016.4
20240622084421 80 46 1.0 3.0 0.00 0.00 0.00 88 1016.1
20240622083929 80 46 0.0 3.0 0.00 0.00 0.00 88 1016.1
20240622083417 80 83 0.0 2.0 0.00 0.00 0.00 88 1016.1
20240622082924 80 83 1.0 2.0 0.00 0.00 0.00 88 1016.2
20240622082432 80 83 0.0 1.0 0.00 0.00 0.00 88 1016.2
20240622081926 80 83 0.0 3.0 0.00 0.00 0.00 88 1016.2
20240622081454 80 83 1.0 3.0 0.00 0.00 0.00 88 1016.5
20240622080923 80 26 1.0 2.0 0.00 0.00 0.00 88 1016.5
20240622080451 80 26 0.0 3.0 0.00 0.00 0.00 88 1016.5
20240622075918 80 26 1.0 3.0 0.00 0.00 0.00 88 1016.5
20240622075426 80 67 2.0 3.0 0.00 0.00 0.00 88 1016.5
20240622074917 80 88 1.0 3.0 0.00 0.00 0.00 88 1016.5
20240622074424 80 36 1.0 4.0 0.00 0.00 0.00 88 1016.5
20240622073935 80 36 2.0 4.0 0.00 0.00 0.00 88 1016.5
20240622073423 80 67 2.0 4.0 0.00 0.00 0.00 88 1016.5
20240622072914 80 44 0.0 1.0 0.00 0.00 0.00 88 1016.6
20240622072425 80 44 0.0 3.0 0.00 0.00 0.00 88 1016.6
20240622071934 80 44 0.0 3.0 0.00 0.00 0.00 88 1016.6
20240622071421 80 50 1.0 4.0 0.00 0.00 0.00 88 1016.6
20240622070930 80 49 2.0 4.0 0.00 0.00 0.00 88 1016.6
20240622070421 80 57 2.0 4.0 0.00 0.00 0.00 88 1016.6
20240622065914 80 52 2.0 3.0 0.00 0.00 0.00 88 1016.7
20240622065445 80 52 2.0 3.0 0.00 0.00 0.00 88 1016.7
20240622064934 80 161 1.0 2.0 0.00 0.00 0.00 87 1016.7
20240622064424 80 161 0.0 0.0 0.00 0.00 0.00 87 1017.1
20240622063932 81 161 0.0 0.0 0.00 0.00 0.00 87 1017.1
20240622063426 81 161 0.0 1.0 0.00 0.00 0.00 87 1017.1
20240622062934 81 161 0.0 1.0 0.00 0.00 0.00 86 1017.1
20240622062424 81 161 1.0 1.0 0.00 0.00 0.00 86 1017.1
20240622061952 81 161 0.0 1.0 0.00 0.00 0.00 85 1017.1
20240622061418 81 161 0.0 2.0 0.00 0.00 0.00 85 1017.2
20240622060926 81 161 1.0 2.0 0.00 0.00 0.00 85 1017.2
20240622060434 82 161 0.0 2.0 0.00 0.00 0.00 85 1017.2
20240622055923 82 161 0.0 2.0 0.00 0.00 0.00 85 1017.5
20240622055418 82 161 1.0 1.0 0.00 0.00 0.00 85 1017.5
20240622054926 82 161 0.0 1.0 0.00 0.00 0.00 84 1017.5
20240622054417 82 161 0.0 1.0 0.00 0.00 0.00 84 1017.6
20240622053925 82 161 0.0 1.0 0.00 0.00 0.00 84 1017.6
20240622053434 82 161 0.0 1.0 0.00 0.00 0.00 84 1017.6
20240622052945 82 161 0.0 2.0 0.00 0.00 0.00 84 1017.7
20240622052431 82 161 0.0 2.0 0.00 0.00 0.00 84 1017.7
20240622051919 82 161 0.0 2.0 0.00 0.00 0.00 84 1017.7
20240622051427 82 161 0.0 1.0 0.00 0.00 0.00 83 1017.7
20240622050916 82 161 0.0 1.0 0.00 0.00 0.00 83 1017.7
20240622050430 82 161 0.0 2.0 0.00 0.00 0.00 83 1017.7
20240622045918 82 161 0.0 2.0 0.00 0.00 0.00 83 1017.7
20240622045430 82 130 0.0 2.0 0.00 0.00 0.00 83 1017.7
20240622044918 82 169 0.0 1.0 0.00 0.00 0.00 83 1017.7
20240622044432 82 169 0.0 1.0 0.00 0.00 0.00 83 1017.9
20240622043919 82 169 0.0 0.0 0.00 0.00 0.00 83 1017.9
20240622043429 82 169 0.0 0.0 0.00 0.00 0.00 83 1017.9
20240622042916 82 169 0.0 0.0 0.00 0.00 0.00 83 1018.0
20240622042426 82 169 0.0 0.0 0.00 0.00 0.00 82 1018.0
20240622041935 82 169 0.0 0.0 0.00 0.00 0.00 82 1018.0
20240622041424 82 169 0.0 0.0 0.00 0.00 0.00 82 1018.0
20240622040916 82 169 0.0 0.0 0.00 0.00 0.00 82 1018.0
20240622040423 82 169 0.0 0.0 0.00 0.00 0.00 83 1018.0
20240622035931 82 169 0.0 0.0 0.00 0.00 0.00 83 1018.2
20240622035419 83 169 0.0 0.0 0.00 0.00 0.00 82 1018.2
20240622034947 83 169 0.0 0.0 0.00 0.00 0.00 82 1018.2
20240622034433 83 169 0.0 1.0 0.00 0.00 0.00 82 1018.1
20240622033923 83 169 0.0 1.0 0.00 0.00 0.00 82 1018.1
20240622033431 83 169 0.0 1.0 0.00 0.00 0.00 81 1018.1
20240622032919 83 169 0.0 1.0 0.00 0.00 0.00 81 1017.9
20240622032427 83 169 0.0 1.0 0.00 0.00 0.00 81 1017.9
20240622031941 83 169 0.0 0.0 0.00 0.00 0.00 81 1017.9
20240622031449 83 169 0.0 0.0 0.00 0.00 0.00 81 1017.7
20240622030917 83 169 0.0 1.0 0.00 0.00 0.00 80 1017.7
20240622030426 83 169 0.0 1.0 0.00 0.00 0.00 80 1017.7
20240622025916 83 169 1.0 1.0 0.00 0.00 0.00 80 1017.6
20240622025426 83 169 0.0 2.0 0.00 0.00 0.00 79 1017.6
20240622024912 83 169 0.0 2.0 0.00 0.00 0.00 80 1017.6
20240622024425 83 169 0.0 2.0 0.00 0.00 0.00 80 1017.5
20240622023953 83 169 0.0 2.0 0.00 0.00 0.00 80 1017.5
20240622023419 83 169 1.0 2.0 0.00 0.00 0.00 79 1017.5
20240622022927 83 169 0.0 1.0 0.00 0.00 0.00 79 1017.5
20240622022420 84 169 0.0 1.0 0.00 0.00 0.00 79 1017.5
20240622021930 84 169 0.0 1.0 0.00 0.00 0.00 79 1017.5
20240622021417 84 169 0.0 1.0 0.00 0.00 0.00 79 1017.3
20240622020931 84 169 0.0 2.0 0.00 0.00 0.00 79 1017.3
20240622020419 84 169 0.0 2.0 0.00 0.00 0.00 78 1017.3
20240622015927 84 169 1.0 2.0 0.00 0.00 0.00 78 1017.2
20240622015432 84 169 0.0 2.0 0.00 0.00 0.00 77 1017.2
20240622014920 84 169 1.0 2.0 0.00 0.00 0.00 77 1017.2
20240622014449 84 169 0.0 1.0 0.00 0.00 0.00 76 1017.2
20240622013916 84 169 0.0 1.0 0.00 0.00 0.00 76 1017.2
20240622013427 84 169 0.0 1.0 0.00 0.00 0.00 76 1017.2
20240622012957 84 169 0.0 1.0 0.00 0.00 0.00 76 1017.2
20240622012423 84 169 0.0 1.0 0.00 0.00 0.00 75 1017.2
20240622011931 84 169 0.0 2.0 0.00 0.00 0.00 75 1017.2
20240622011418 84 169 0.0 2.0 0.00 0.00 0.00 75 1017.1
20240622010926 84 169 1.0 2.0 0.00 0.00 0.00 75 1017.1
20240622010416 84 169 0.0 1.0 0.00 0.00 0.00 75 1017.1
20240622005924 84 169 0.0 2.0 0.00 0.00 0.00 75 1016.6
20240622005453 84 169 0.0 2.0 0.00 0.00 0.00 75 1016.6
20240622004920 84 281 0.0 2.0 0.00 0.00 0.00 75 1016.6
20240622004428 84 280 2.0 3.0 0.00 0.00 0.00 74 1016.6
20240622003919 84 281 1.0 3.0 0.00 0.00 0.00 74 1016.6
20240622003432 85 259 1.0 4.0 0.00 0.00 0.00 74 1016.6
20240622002921 85 275 3.0 4.0 0.00 0.00 0.00 73 1016.6
20240622002428 85 284 1.0 4.0 0.00 0.00 0.00 74 1016.6
20240622001915 85 259 3.0 4.0 0.00 0.00 0.00 74 1016.6
20240622001427 85 274 2.0 6.0 0.00 0.00 0.00 73 1016.3
20240622000937 85 254 3.0 6.0 0.00 0.00 0.00 74 1016.3
20240622000425 85 244 2.0 5.0 0.00 0.00 0.00 74 1016.3
20240621235912 85 247 3.0 6.0 0.00 0.00 0.00 73 1016.0
20240621235426 85 242 3.0 6.0 0.00 0.00 0.00 73 1016.0
20240621234921 85 277 4.0 7.0 0.00 0.00 0.00 73 1016.0
20240621234453 86 258 2.0 7.0 0.00 0.00 0.00 73 1015.6
20240621233923 86 323 3.0 7.0 0.00 0.00 0.00 73 1015.6
20240621233432 86 257 3.0 8.0 0.00 0.00 0.00 73 1015.6
20240621232921 86 268 5.0 8.0 0.00 0.00 0.00 72 1015.6
20240621232430 86 261 3.0 7.0 0.00 0.00 0.00 72 1015.6
20240621231938 86 291 3.0 6.0 0.00 0.00 0.00 72 1015.6
20240621231425 86 274 4.0 7.0 0.00 0.00 0.00 72 1015.5
20240621230957 87 242 3.0 7.0 0.00 0.00 0.00 71 1015.5
20240621230424 87 294 4.0 9.0 0.00 0.00 0.00 71 1015.5
20240621225932 88 309 6.0 9.0 0.00 0.00 0.00 71 1015.5
20240621225422 88 304 3.0 8.0 0.00 0.00 0.00 71 1015.5
20240621224935 88 261 4.0 8.0 0.00 0.00 0.00 71 1015.5
20240621224423 88 271 3.0 6.0 0.00 0.00 0.00 70 1015.4
20240621223931 88 306 4.0 7.0 0.00 0.00 0.00 71 1015.4
20240621223421 88 262 4.0 10.0 0.00 0.00 0.00 70 1015.4
20240621222928 88 305 4.0 10.0 0.00 0.00 0.00 70 1015.4
20240621222419 88 322 4.0 8.0 0.00 0.00 0.00 70 1015.4
20240621221927 89 317 5.0 8.0 0.00 0.00 0.00 69 1015.4
20240621221454 89 274 4.0 10.0 0.00 0.00 0.00 69 1015.4
20240621220942 89 306 6.0 10.0 0.00 0.00 0.00 69 1015.4
20240621220417 89 300 5.0 9.0 0.00 0.00 0.00 68 1015.4
20240621215926 90 273 4.0 9.0 0.00 0.00 0.00 69 1015.4
20240621215454 90 325 5.0 9.0 0.00 0.00 0.00 68 1015.4
20240621214924 90 337 4.0 7.0 0.00 0.00 0.00 68 1015.4
20240621214433 90 250 4.0 8.0 0.00 0.00 0.00 68 1015.4
20240621213922 90 305 5.0 9.0 0.00 0.00 0.00 67 1015.4